sensor_id;sensor_type;location;lat;lon;timestamp;noise_LAeq;noise_LA_min;noise_LA_max;noise_LA01;noise_LA95
75037;Laerm;64247;51.540;5.854;2023-03-03T11:03:05;49.87;46.01;63.34;;
75037;Laerm;64247;51.540;5.854;2023-03-03T11:05:38;49.08;45.82;54.69;;
75037;Laerm;64247;51.540;5.854;2023-03-03T11:07:53;49.60;45.74;56.80;;
75037;Laerm;64247;51.540;5.854;2023-03-03T11:22:39;50.42;46.68;60.20;;
75037;Laerm;64247;51.540;5.854;2023-03-03T11:28:36;49.09;46.33;57.67;;
75037;Laerm;64247;51.540;5.854;2023-03-03T11:32:14;49.33;46.17;58.60;;
75037;Laerm;64247;51.540;5.854;2023-03-03T11:34:16;49.61;45.83;57.46;;
75037;Laerm;64247;51.540;5.854;2023-03-03T11:36:47;49.12;46.29;56.87;;
75037;Laerm;64247;51.540;5.854;2023-03-03T11:39:11;49.26;45.62;54.33;;
75037;Laerm;64247;51.540;5.854;2023-03-03T11:41:40;48.55;45.71;56.32;;
75037;Laerm;64247;51.540;5.854;2023-03-03T11:43:51;50.56;46.40;57.34;;
75037;Laerm;64247;51.540;5.854;2023-03-03T11:46:18;49.06;45.74;56.69;;
75037;Laerm;64247;51.540;5.854;2023-03-03T11:49:00;49.48;45.48;61.22;;
75037;Laerm;64247;51.540;5.854;2023-03-03T11:51:12;49.94;46.54;59.27;;
75037;Laerm;64247;51.540;5.854;2023-03-03T11:53:53;49.37;45.77;61.60;;
75037;Laerm;64247;51.540;5.854;2023-03-03T11:56:18;49.58;45.94;57.48;;
75037;Laerm;64247;51.540;5.854;2023-03-03T11:59:16;49.84;44.89;58.03;;
75037;Laerm;64247;51.540;5.854;2023-03-03T12:01:35;48.66;44.73;58.39;;
75037;Laerm;64247;51.540;5.854;2023-03-03T12:04:12;49.92;44.55;65.12;;
75037;Laerm;64247;51.540;5.854;2023-03-03T12:12:24;49.43;46.14;58.58;;
75037;Laerm;64247;51.540;5.854;2023-03-03T12:22:15;54.75;45.61;69.10;;
75037;Laerm;64247;51.540;5.854;2023-03-03T12:28:15;49.56;46.16;61.11;;
75037;Laerm;64247;51.540;5.854;2023-03-03T12:31:48;49.86;46.27;61.02;;
75037;Laerm;64247;51.540;5.854;2023-03-03T12:42:37;50.28;46.71;62.30;;
75037;Laerm;64247;51.540;5.854;2023-03-03T12:47:37;49.40;46.27;54.48;;
75037;Laerm;64247;51.540;5.854;2023-03-03T12:49:59;50.60;46.73;64.66;;
75037;Laerm;64247;51.540;5.854;2023-03-03T12:52:33;48.81;45.96;53.42;;
75037;Laerm;64247;51.540;5.854;2023-03-03T13:00:54;50.03;45.94;68.47;;
75037;Laerm;64247;51.540;5.854;2023-03-03T13:03:12;51.00;45.80;68.44;;
75037;Laerm;64247;51.540;5.854;2023-03-03T13:08:39;53.57;45.53;68.70;;
75037;Laerm;64247;51.540;5.854;2023-03-03T13:14:59;50.27;45.80;73.90;;
75037;Laerm;64247;51.540;5.854;2023-03-03T13:19:39;49.13;46.55;52.37;;
75037;Laerm;64247;51.540;5.854;2023-03-03T13:22:08;49.98;46.18;60.69;;
75037;Laerm;64247;51.540;5.854;2023-03-03T13:28:17;50.50;46.32;61.40;;
75037;Laerm;64247;51.540;5.854;2023-03-03T13:30:26;49.11;45.94;56.37;;
75037;Laerm;64247;51.540;5.854;2023-03-03T13:32:55;51.00;45.92;63.22;;
75037;Laerm;64247;51.540;5.854;2023-03-03T13:35:37;49.03;45.67;53.22;;
75037;Laerm;64247;51.540;5.854;2023-03-03T13:37:48;53.82;48.21;67.77;;
75037;Laerm;64247;51.540;5.854;2023-03-03T13:40:18;65.38;51.71;76.62;;
75037;Laerm;64247;51.540;5.854;2023-03-03T13:42:43;53.14;47.29;63.52;;
75037;Laerm;64247;51.540;5.854;2023-03-03T13:44:49;50.70;46.07;62.71;;
75037;Laerm;64247;51.540;5.854;2023-03-03T13:57:03;49.66;45.83;58.69;;
75037;Laerm;64247;51.540;5.854;2023-03-03T13:59:35;50.72;46.10;64.99;;
75037;Laerm;64247;51.540;5.854;2023-03-03T14:05:49;49.81;46.06;55.31;;
75037;Laerm;64247;51.540;5.854;2023-03-03T14:08:24;48.81;45.83;57.71;;
75037;Laerm;64247;51.540;5.854;2023-03-03T14:11:10;49.78;45.54;60.55;;
75037;Laerm;64247;51.540;5.854;2023-03-03T14:13:20;50.38;46.55;60.23;;
75037;Laerm;64247;51.540;5.854;2023-03-03T14:16:04;48.52;45.79;59.36;;
75037;Laerm;64247;51.540;5.854;2023-03-03T14:21:39;49.63;46.03;63.73;;
75037;Laerm;64247;51.540;5.854;2023-03-03T14:24:22;51.85;46.20;68.57;;
75037;Laerm;64247;51.540;5.854;2023-03-03T14:26:26;50.43;45.61;59.84;;
75037;Laerm;64247;51.540;5.854;2023-03-03T14:28:39;52.08;46.25;66.08;;
75037;Laerm;64247;51.540;5.854;2023-03-03T14:30:42;51.04;46.68;58.52;;
75037;Laerm;64247;51.540;5.854;2023-03-03T14:38:23;49.77;46.12;58.20;;
75037;Laerm;64247;51.540;5.854;2023-03-03T14:40:36;49.87;46.58;59.83;;
75037;Laerm;64247;51.540;5.854;2023-03-03T14:43:35;50.62;45.55;65.82;;
75037;Laerm;64247;51.540;5.854;2023-03-03T14:45:41;55.84;46.38;73.29;;
75037;Laerm;64247;51.540;5.854;2023-03-03T14:47:45;50.08;46.80;58.83;;
75037;Laerm;64247;51.540;5.854;2023-03-03T14:49:47;49.78;45.90;63.63;;
75037;Laerm;64247;51.540;5.854;2023-03-03T14:51:49;64.59;47.34;72.27;;
75037;Laerm;64247;51.540;5.854;2023-03-03T14:53:50;69.39;46.21;78.19;;
75037;Laerm;64247;51.540;5.854;2023-03-03T14:55:52;52.96;45.94;67.72;;
75037;Laerm;64247;51.540;5.854;2023-03-03T14:57:53;50.21;46.56;58.78;;
75037;Laerm;64247;51.540;5.854;2023-03-03T15:00:02;48.25;45.45;53.33;;
75037;Laerm;64247;51.540;5.854;2023-03-03T15:03:04;49.28;45.60;55.80;;
75037;Laerm;64247;51.540;5.854;2023-03-03T15:05:51;49.60;45.02;62.12;;
75037;Laerm;64247;51.540;5.854;2023-03-03T15:10:54;66.30;46.43;78.04;;
75037;Laerm;64247;51.540;5.854;2023-03-03T15:13:40;52.43;46.23;68.19;;
75037;Laerm;64247;51.540;5.854;2023-03-03T15:16:23;50.09;45.93;65.21;;
75037;Laerm;64247;51.540;5.854;2023-03-03T15:18:32;52.28;46.43;67.92;;
75037;Laerm;64247;51.540;5.854;2023-03-03T15:21:07;52.67;46.82;66.66;;
75037;Laerm;64247;51.540;5.854;2023-03-03T15:27:22;51.27;47.17;67.60;;
75037;Laerm;64247;51.540;5.854;2023-03-03T15:41:37;51.22;48.01;58.36;;
75037;Laerm;64247;51.540;5.854;2023-03-03T15:44:02;50.45;48.07;60.17;;
75037;Laerm;64247;51.540;5.854;2023-03-03T15:47:09;58.76;47.23;71.52;;
75037;Laerm;64247;51.540;5.854;2023-03-03T15:56:02;51.49;47.25;62.72;;
75037;Laerm;64247;51.540;5.854;2023-03-03T15:59:50;51.46;47.41;66.46;;
75037;Laerm;64247;51.540;5.854;2023-03-03T16:04:28;50.20;46.48;60.20;;
75037;Laerm;64247;51.540;5.854;2023-03-03T16:07:12;52.01;47.42;72.96;;
75037;Laerm;64247;51.540;5.854;2023-03-03T16:15:47;50.17;46.54;54.13;;
75037;Laerm;64247;51.540;5.854;2023-03-03T16:24:10;56.78;50.34;67.28;;
75037;Laerm;64247;51.540;5.854;2023-03-03T16:32:47;61.91;54.86;70.35;;
75037;Laerm;64247;51.540;5.854;2023-03-03T16:38:05;59.18;54.61;74.84;;
75037;Laerm;64247;51.540;5.854;2023-03-03T16:41:20;54.12;48.86;71.17;;
75037;Laerm;64247;51.540;5.854;2023-03-03T16:44:50;52.96;47.69;62.48;;
75037;Laerm;64247;51.540;5.854;2023-03-03T16:54:38;51.76;47.63;57.31;;
75037;Laerm;64247;51.540;5.854;2023-03-03T17:18:55;50.59;46.81;62.01;;
75037;Laerm;64247;51.540;5.854;2023-03-03T17:21:01;50.29;46.63;57.37;;
75037;Laerm;64247;51.540;5.854;2023-03-03T17:30:00;50.78;46.60;60.72;;
75037;Laerm;64247;51.540;5.854;2023-03-03T17:47:22;50.21;46.99;64.26;;
75037;Laerm;64247;51.540;5.854;2023-03-03T18:02:54;48.65;45.85;60.94;;
75037;Laerm;64247;51.540;5.854;2023-03-03T18:11:03;49.07;45.69;64.72;;
75037;Laerm;64247;51.540;5.854;2023-03-03T18:22:19;48.48;46.35;51.00;;
75037;Laerm;64247;51.540;5.854;2023-03-03T18:25:15;48.53;46.08;58.38;;
75037;Laerm;64247;51.540;5.854;2023-03-03T18:27:36;48.57;46.14;52.69;;
75037;Laerm;64247;51.540;5.854;2023-03-03T18:33:02;49.61;46.71;60.10;;
75037;Laerm;64247;51.540;5.854;2023-03-03T18:35:44;49.31;46.52;52.76;;
75037;Laerm;64247;51.540;5.854;2023-03-03T18:37:45;49.47;46.82;56.53;;
75037;Laerm;64247;51.540;5.854;2023-03-03T18:40:30;48.71;46.62;51.55;;
75037;Laerm;64247;51.540;5.854;2023-03-03T18:42:41;49.18;46.51;52.01;;
75037;Laerm;64247;51.540;5.854;2023-03-03T18:44:43;49.39;46.40;55.27;;
75037;Laerm;64247;51.540;5.854;2023-03-03T18:46:47;49.13;46.92;52.62;;
75037;Laerm;64247;51.540;5.854;2023-03-03T18:49:09;49.12;46.08;52.28;;
75037;Laerm;64247;51.540;5.854;2023-03-03T18:51:11;48.71;46.19;52.62;;
75037;Laerm;64247;51.540;5.854;2023-03-03T18:53:33;48.09;45.86;53.02;;
75037;Laerm;64247;51.540;5.854;2023-03-03T18:56:09;49.29;46.01;58.42;;
75037;Laerm;64247;51.540;5.854;2023-03-03T18:58:41;48.95;45.91;56.56;;
75037;Laerm;64247;51.540;5.854;2023-03-03T19:06:08;49.32;46.09;57.04;;
75037;Laerm;64247;51.540;5.854;2023-03-03T19:08:52;48.85;46.18;55.31;;
75037;Laerm;64247;51.540;5.854;2023-03-03T19:10:59;48.49;45.36;51.40;;
75037;Laerm;64247;51.540;5.854;2023-03-03T19:13:01;48.96;46.55;53.00;;
75037;Laerm;64247;51.540;5.854;2023-03-03T19:17:56;49.33;46.93;53.00;;
75037;Laerm;64247;51.540;5.854;2023-03-03T19:20:13;49.10;46.48;52.06;;
75037;Laerm;64247;51.540;5.854;2023-03-03T19:23:04;49.09;46.40;54.83;;
75037;Laerm;64247;51.540;5.854;2023-03-03T19:25:29;49.48;45.98;61.61;;
75037;Laerm;64247;51.540;5.854;2023-03-03T19:28:24;48.35;45.74;55.25;;
75037;Laerm;64247;51.540;5.854;2023-03-03T19:32:20;49.27;46.54;59.56;;
75037;Laerm;64247;51.540;5.854;2023-03-03T19:42:45;49.28;46.29;59.51;;
75037;Laerm;64247;51.540;5.854;2023-03-03T20:00:47;48.59;45.75;56.59;;
75037;Laerm;64247;51.540;5.854;2023-03-03T20:06:12;48.85;45.73;62.61;;
75037;Laerm;64247;51.540;5.854;2023-03-03T20:15:02;48.19;45.76;53.00;;
75037;Laerm;64247;51.540;5.854;2023-03-03T20:17:54;48.78;46.03;58.69;;
75037;Laerm;64247;51.540;5.854;2023-03-03T20:20:55;48.99;46.42;55.05;;
75037;Laerm;64247;51.540;5.854;2023-03-03T20:24:45;48.15;46.21;50.65;;
75037;Laerm;64247;51.540;5.854;2023-03-03T20:26:21;49.08;46.59;59.20;;
75037;Laerm;64247;51.540;5.854;2023-03-03T20:32:17;48.39;45.33;57.60;;
75037;Laerm;64247;51.540;5.854;2023-03-03T20:34:54;48.96;46.20;56.35;;
75037;Laerm;64247;51.540;5.854;2023-03-03T20:37:09;48.07;46.14;52.20;;
75037;Laerm;64247;51.540;5.854;2023-03-03T20:56:40;49.12;45.37;56.98;;
75037;Laerm;64247;51.540;5.854;2023-03-03T20:59:35;48.20;45.71;62.96;;
75037;Laerm;64247;51.540;5.854;2023-03-03T21:04:30;48.04;45.27;52.64;;
75037;Laerm;64247;51.540;5.854;2023-03-03T21:06:38;47.51;44.99;50.85;;
75037;Laerm;64247;51.540;5.854;2023-03-03T21:09:00;47.35;45.09;49.75;;
75037;Laerm;64247;51.540;5.854;2023-03-03T21:11:01;48.02;45.70;52.32;;
75037;Laerm;64247;51.540;5.854;2023-03-03T21:13:47;47.86;45.56;56.14;;
75037;Laerm;64247;51.540;5.854;2023-03-03T21:16:02;48.14;45.56;53.64;;
75037;Laerm;64247;51.540;5.854;2023-03-03T21:18:26;48.01;45.63;54.80;;
75037;Laerm;64247;51.540;5.854;2023-03-03T21:20:33;48.18;46.09;51.04;;
75037;Laerm;64247;51.540;5.854;2023-03-03T21:22:34;48.80;45.91;52.51;;
75037;Laerm;64247;51.540;5.854;2023-03-03T21:24:56;48.40;45.83;51.34;;
75037;Laerm;64247;51.540;5.854;2023-03-03T21:27:00;50.04;45.34;68.01;;
75037;Laerm;64247;51.540;5.854;2023-03-03T21:29:01;50.03;46.32;69.64;;
75037;Laerm;64247;51.540;5.854;2023-03-03T21:31:25;47.90;45.75;51.60;;
75037;Laerm;64247;51.540;5.854;2023-03-03T21:34:22;48.01;45.50;51.06;;
75037;Laerm;64247;51.540;5.854;2023-03-03T21:36:45;47.99;45.67;51.08;;
75037;Laerm;64247;51.540;5.854;2023-03-03T21:38:48;47.59;45.39;50.12;;
75037;Laerm;64247;51.540;5.854;2023-03-03T21:40:59;48.11;45.73;54.55;;
75037;Laerm;64247;51.540;5.854;2023-03-03T21:43:00;47.91;45.96;50.20;;
75037;Laerm;64247;51.540;5.854;2023-03-03T21:45:11;48.30;45.84;51.60;;
75037;Laerm;64247;51.540;5.854;2023-03-03T21:47:15;49.12;46.02;56.49;;
75037;Laerm;64247;51.540;5.854;2023-03-03T21:49:16;49.40;45.96;61.92;;
75037;Laerm;64247;51.540;5.854;2023-03-03T21:51:18;47.79;44.96;50.11;;
75037;Laerm;64247;51.540;5.854;2023-03-03T21:53:20;47.89;45.26;54.82;;
75037;Laerm;64247;51.540;5.854;2023-03-03T21:55:23;47.82;45.15;52.25;;
75037;Laerm;64247;51.540;5.854;2023-03-03T21:57:27;47.62;45.67;51.56;;
75037;Laerm;64247;51.540;5.854;2023-03-03T21:59:27;47.67;45.46;49.98;;
75037;Laerm;64247;51.540;5.854;2023-03-03T22:01:28;48.95;45.79;58.03;;
75037;Laerm;64247;51.540;5.854;2023-03-03T22:03:29;48.30;45.10;51.37;;
75037;Laerm;64247;51.540;5.854;2023-03-03T22:05:30;48.38;45.28;51.67;;
75037;Laerm;64247;51.540;5.854;2023-03-03T22:07:31;48.02;45.62;53.56;;
75037;Laerm;64247;51.540;5.854;2023-03-03T22:09:33;48.44;45.57;53.41;;
75037;Laerm;64247;51.540;5.854;2023-03-03T22:11:34;50.14;46.58;64.13;;
75037;Laerm;64247;51.540;5.854;2023-03-03T22:13:35;48.47;46.32;51.03;;
75037;Laerm;64247;51.540;5.854;2023-03-03T22:15:39;49.59;46.30;54.74;;
75037;Laerm;64247;51.540;5.854;2023-03-03T22:17:40;50.15;47.11;54.74;;
75037;Laerm;64247;51.540;5.854;2023-03-03T22:19:42;50.05;46.26;55.38;;
75037;Laerm;64247;51.540;5.854;2023-03-03T22:21:43;49.93;46.66;60.21;;
75037;Laerm;64247;51.540;5.854;2023-03-03T22:23:46;49.26;45.84;58.20;;
75037;Laerm;64247;51.540;5.854;2023-03-03T22:25:47;49.14;46.23;55.17;;
75037;Laerm;64247;51.540;5.854;2023-03-03T22:27:48;48.71;46.15;51.71;;
75037;Laerm;64247;51.540;5.854;2023-03-03T22:29:48;48.55;45.92;52.58;;
75037;Laerm;64247;51.540;5.854;2023-03-03T22:31:50;47.88;46.15;51.11;;
75037;Laerm;64247;51.540;5.854;2023-03-03T22:33:51;48.62;46.52;52.43;;
75037;Laerm;64247;51.540;5.854;2023-03-03T22:35:52;48.45;46.54;51.00;;
75037;Laerm;64247;51.540;5.854;2023-03-03T22:37:53;48.70;46.29;53.44;;
75037;Laerm;64247;51.540;5.854;2023-03-03T22:39:53;48.61;46.25;52.67;;
75037;Laerm;64247;51.540;5.854;2023-03-03T22:41:54;48.02;46.06;49.96;;
75037;Laerm;64247;51.540;5.854;2023-03-03T22:43:55;48.66;45.91;53.80;;
75037;Laerm;64247;51.540;5.854;2023-03-03T22:45:56;49.21;45.68;54.66;;
75037;Laerm;64247;51.540;5.854;2023-03-03T22:47:57;49.21;47.01;51.05;;
75037;Laerm;64247;51.540;5.854;2023-03-03T22:49:58;50.05;47.58;53.90;;
75037;Laerm;64247;51.540;5.854;2023-03-03T22:51:59;50.36;47.29;55.63;;
75037;Laerm;64247;51.540;5.854;2023-03-03T22:54:02;49.53;47.03;52.24;;
75037;Laerm;64247;51.540;5.854;2023-03-03T22:56:03;48.79;46.69;52.26;;
75037;Laerm;64247;51.540;5.854;2023-03-03T22:58:05;49.14;46.98;58.02;;
75037;Laerm;64247;51.540;5.854;2023-03-03T23:00:09;48.80;47.02;50.47;;
75037;Laerm;64247;51.540;5.854;2023-03-03T23:02:11;49.28;47.14;53.49;;
75037;Laerm;64247;51.540;5.854;2023-03-03T23:04:12;48.67;46.82;51.65;;
75037;Laerm;64247;51.540;5.854;2023-03-03T23:06:12;49.87;47.51;52.91;;
75037;Laerm;64247;51.540;5.854;2023-03-03T23:08:16;48.96;46.91;52.32;;
75037;Laerm;64247;51.540;5.854;2023-03-03T23:10:18;49.46;47.59;53.04;;
75037;Laerm;64247;51.540;5.854;2023-03-03T23:12:19;50.53;47.43;59.42;;
75037;Laerm;64247;51.540;5.854;2023-03-03T23:14:20;49.99;47.60;56.22;;
75037;Laerm;64247;51.540;5.854;2023-03-03T23:16:21;49.65;46.48;56.96;;
75037;Laerm;64247;51.540;5.854;2023-03-03T23:18:22;47.68;45.71;51.51;;
75037;Laerm;64247;51.540;5.854;2023-03-03T23:20:28;47.86;45.85;51.42;;
75037;Laerm;64247;51.540;5.854;2023-03-03T23:22:29;48.78;46.02;53.42;;
75037;Laerm;64247;51.540;5.854;2023-03-03T23:24:30;49.08;46.35;56.67;;
75037;Laerm;64247;51.540;5.854;2023-03-03T23:26:32;49.29;46.51;53.61;;
75037;Laerm;64247;51.540;5.854;2023-03-03T23:28:33;48.31;45.91;51.93;;
75037;Laerm;64247;51.540;5.854;2023-03-03T23:30:34;48.52;46.07;51.54;;
75037;Laerm;64247;51.540;5.854;2023-03-03T23:32:35;49.06;46.03;52.65;;
75037;Laerm;64247;51.540;5.854;2023-03-03T23:34:35;48.21;46.21;56.69;;
75037;Laerm;64247;51.540;5.854;2023-03-03T23:36:36;49.04;46.28;55.55;;
75037;Laerm;64247;51.540;5.854;2023-03-03T23:38:37;49.87;46.66;57.00;;
75037;Laerm;64247;51.540;5.854;2023-03-03T23:40:38;49.68;46.11;63.79;;
75037;Laerm;64247;51.540;5.854;2023-03-03T23:42:39;48.02;46.02;55.65;;
75037;Laerm;64247;51.540;5.854;2023-03-03T23:44:40;48.71;46.16;57.06;;
75037;Laerm;64247;51.540;5.854;2023-03-03T23:46:41;48.34;46.15;56.99;;
75037;Laerm;64247;51.540;5.854;2023-03-03T23:48:42;47.86;45.98;51.01;;
75037;Laerm;64247;51.540;5.854;2023-03-03T23:50:43;47.49;45.85;49.08;;
75037;Laerm;64247;51.540;5.854;2023-03-03T23:52:43;46.92;45.21;48.44;;
75037;Laerm;64247;51.540;5.854;2023-03-03T23:54:45;47.10;45.35;49.09;;
75037;Laerm;64247;51.540;5.854;2023-03-03T23:56:46;47.36;45.37;49.53;;
75037;Laerm;64247;51.540;5.854;2023-03-03T23:58:47;47.24;45.36;49.78;;
